Accueil
METAR-TAF:

METAR-TAF

Aéroports :

La Chaux-de-Fonds, Suisse

Aéroport régional Les Éplatures

latitude: 47-05-03N, longitude: 006-47-37E, altitude: 1027 m

Observation

Le bulletin a été fait il y a 22 minutes, à 19:50 UTC
Vent 8 kt de est/nord-est, variant entre nord-est et sud-est
Température -6°C
Humidité 93%
Pression 1007 hPa
Visibilité: 3900 m
Ciel couvert à une hauteur de 700 ft
brume

METAR: LSGC 231950Z AUTO 07008KT 040V130 3900 BR OVC007 M06/M07 Q1007

Heure: 21:12 (20:12 UTC)

Prévision

Le bulletin a été fait il y a 5 heures et 47 minutes, à 14:25 UTC
Prévision valable du 23 à 15 UTC au 23 à 24 UTC
Vent 12 kt de nord-est
Visibilité: 4500 m
Nuages fragmentés à une hauteur de 1000 ft
brume
Probabilité 40% :
Temporairement
du 23 à 15 UTC au 23 à 21 UTC
Visibilité: 3000 m
Ciel couvert à une hauteur de 400 ft
neige faible

TAF: LSGC 231425Z 2315/2324 05012KT 4500 BR BKN010 PROB40 TEMPO 2315/2321 3000 -SN OVC004

Observations et prévisions météorologiques de plus de 4000 aéroports (messages METAR et TAF).

Les stations disponibles sont représentées par des disques jaunes et rouges sur la carte.

Passer la souris dessus pour voir le nom de la station.

Cliquer dessus pour voir les observations et prévisions météorologiques.

Pour changer de carte: cliquez sur les boutons verts avec une croix noire pour zoomer, sur le bouton vert avec un tiret pour effectuer un zoom arrière, ou sur les flèches vertes pour les cartes adjacentes.


METAR-TAF: